Date,TemperatureHighF,TemperatureAvgF,TemperatureLowF,DewpointHighF,DewpointAvgF,DewpointLowF,HumidityHigh,HumidityAvg,HumidityLow,PressureMaxIn,PressureMinIn,WindSpeedMaxMPH,WindSpeedAvgMPH,GustSpeedMaxMPH,PrecipitationSumIn
2013-1-1,34.9,29.8,18.1,26.2,18.5,5.5,73,63,51,29.94,29.73,18,4,19,0.00
2013-1-2,27.9,17.9,8.1,15.4,8.6,1.0,82,67,55,30.12,29.92,15,2,15,0.00
2013-1-3,23.0,13.8,3.6,12.2,1.2,-6.3,74,58,35,30.16,30.01,10,2,10,0.00
2013-1-4,36.7,28.3,18.9,24.8,19.8,11.8,84,71,59,30.01,29.84,19,2,19,0.00
2013-1-5,39.0,31.2,21.9,24.4,21.1,16.3,81,67,48,30.27,29.87,16,2,16,0.00
2013-1-6,39.9,30.7,22.5,28.8,24.6,17.1,90,79,62,30.23,29.95,11,1,12,0.00
2013-1-7,37.6,30.0,18.1,28.2,21.6,13.6,90,72,47,30.40,29.98,11,1,11,0.00
2013-1-8,43.5,32.7,17.4,29.1,25.1,13.3,87,74,55,30.37,30.27,12,2,14,0.00
2013-1-9,42.4,34.3,22.3,35.2,28.1,20.1,93,79,56,30.40,30.02,17,1,17,0.00
2013-1-10,43.5,38.3,28.6,28.9,25.2,23.0,81,60,47,30.54,30.07,23,3,24,0.00
2013-1-11,37.0,31.4,23.9,34.7,27.0,20.8,95,84,67,30.54,30.21,5,0,5,0.04
2013-1-12,39.7,36.9,34.0,39.0,36.1,32.9,97,97,95,30.23,30.12,3,0,3,0.00
2013-1-13,48.9,44.4,38.1,47.5,43.3,37.4,98,96,93,30.16,29.99,8,1,8,0.00
2013-1-14,56.3,48.2,38.3,50.7,41.0,27.7,96,78,43,30.25,29.86,13,2,13,0.00
2013-1-15,39.7,35.1,30.0,29.1,26.4,24.3,84,71,56,30.32,30.21,7,0,7,0.00
2013-1-16,32.5,31.0,28.6,31.3,28.8,25.3,96,92,78,30.25,29.83,5,0,5,0.03
2013-1-17,38.8,33.0,28.0,32.4,26.4,15.4,95,78,56,30.10,29.84,10,2,12,0.00
2013-1-18,28.4,21.2,16.5,17.4,4.9,-1.1,63,49,36,30.45,30.04,9,2,16,0.00
2013-1-19,43.9,35.0,19.6,32.0,23.2,7.2,78,62,48,30.38,29.88,14,2,15,0.00
2013-1-20,50.4,39.0,27.0,32.2,25.4,9.5,78,59,33,29.93,29.55,25,4,25,0.00
2013-1-21,27.7,22.9,19.2,19.2,11.7,5.4,91,63,43,30.10,29.80,14,2,15,0.04
2013-1-22,21.2,17.9,10.0,18.7,6.8,-2.0,92,64,40,30.09,29.76,18,3,18,0.00
2013-1-23,13.6,8.9,4.6,2.5,-4.7,-8.3,69,54,41,30.16,30.07,18,4,18,0.00
2013-1-24,18.0,9.5,1.2,-4.0,-6.7,-8.7,67,48,34,30.26,30.10,19,4,21,0.00
2013-1-25,20.8,14.2,5.7,12.6,-3.4,-8.1,87,46,30,30.34,30.06,10,2,12,0.02
2013-1-26,21.7,14.7,5.7,12.6,3.6,-4.9,88,64,36,30.27,30.01,11,2,12,0.01
2013-1-27,28.6,18.9,10.8,6.4,3.4,0.7,69,52,32,30.48,30.26,12,2,12,0.00
2013-1-28,29.7,22.8,15.1,24.3,14.1,2.8,94,71,38,30.47,30.02,5,0,6,0.04
2013-1-29,32.4,28.6,24.3,31.3,26.9,22.5,96,94,91,30.20,30.02,3,0,4,0.03
2013-1-30,57.7,47.1,32.2,55.6,45.8,31.1,98,95,91,30.16,29.43,16,1,16,0.05
2013-1-31,60.1,46.1,29.5,57.9,36.8,15.4,94,71,43,29.60,28.97,24,6,26,0.51
2013-2-1,30.6,26.4,20.3,20.5,10.3,4.8,71,51,37,30.09,29.59,22,5,22,0.00
2013-2-2,28.9,22.7,16.2,14.5,7.9,2.1,69,53,41,30.25,30.05,13,2,14,0.00
2013-2-3,26.8,23.2,17.6,21.6,18.8,14.7,91,83,70,30.06,29.74,6,0,7,0.00
2013-2-4,27.3,22.1,18.3,19.2,11.8,7.0,91,66,43,29.95,29.73,22,4,22,0.00
2013-2-5,27.3,23.2,19.9,20.8,15.0,8.8,90,71,60,30.03,29.94,12,1,12,0.00
2013-2-6,36.7,28.1,22.1,25.3,17.8,4.6,93,68,41,30.31,29.92,15,2,16,0.00
2013-2-7,30.0,23.4,14.2,10.9,6.1,3.0,76,48,33,30.53,30.31,9,1,9,0.00
2013-2-8,30.0,23.5,17.1,26.8,19.0,9.9,93,83,57,30.49,29.60,15,1,15,0.75
2013-2-9,23.2,18.5,12.9,18.3,14.4,5.9,93,84,73,30.22,29.58,17,4,17,0.09
2013-2-10,36.9,20.7,2.8,10.0,5.8,-2.7,78,55,25,30.41,30.22,8,1,8,0.02
2013-2-11,43.5,32.4,14.9,42.4,28.4,6.4,97,85,59,30.36,29.61,12,1,12,0.13
2013-2-12,41.7,37.0,32.0,39.2,28.8,24.4,96,72,59,29.88,29.61,21,4,21,0.00
2013-2-13,39.2,33.1,25.3,26.8,23.8,20.8,83,69,55,29.86,29.68,8,1,10,0.00
2013-2-14,41.9,34.0,27.1,25.2,22.4,19.9,83,63,44,29.99,29.71,8,1,9,0.00
2013-2-15,48.9,37.2,26.2,34.3,30.0,21.9,94,76,55,29.99,29.90,10,1,10,0.00
2013-2-16,36.7,32.9,28.0,31.1,27.4,18.1,94,81,59,29.94,29.70,8,1,8,0.00
2013-2-17,27.9,20.6,14.7,20.1,9.6,1.0,88,64,43,29.73,29.42,23,5,24,0.00
2013-2-18,28.4,20.6,12.4,4.3,1.8,-0.6,59,45,29,30.17,29.73,20,5,20,0.00
2013-2-19,46.8,34.5,20.8,40.3,24.2,3.7,95,67,44,30.18,29.58,11,1,19,0.14
2013-2-20,39.0,30.1,24.3,37.8,18.9,10.6,95,64,44,29.79,29.55,23,6,23,0.00
2013-2-21,31.6,26.2,22.5,16.3,14.1,10.8,72,60,48,30.22,29.77,23,5,23,0.00
2013-2-22,39.6,30.0,17.2,23.7,19.9,13.8,89,67,47,30.38,30.22,7,1,9,0.00
2013-2-23,36.3,32.3,28.0,30.9,27.8,22.3,95,83,76,30.32,29.89,10,1,10,0.12
2013-2-24,34.2,32.5,31.1,32.5,31.2,29.8,95,95,93,29.89,29.70,7,0,7,0.39
2013-2-25,41.7,33.1,26.2,35.6,30.4,24.8,96,90,76,30.24,29.89,4,0,4,0.00
2013-2-26,42.3,35.7,31.5,34.5,29.7,27.3,96,80,59,30.33,30.14,9,1,9,0.00
2013-2-27,40.5,36.6,33.1,39.2,35.0,29.5,96,94,83,30.14,29.58,18,2,18,0.93
2013-2-28,44.1,36.2,31.1,38.5,33.8,29.7,96,91,78,29.64,29.53,4,0,4,0.00
2013-3-1,41.4,36.4,30.7,33.1,29.7,26.1,95,77,61,29.68,29.53,9,1,9,0.00
2013-3-2,40.5,35.6,32.4,29.1,27.1,25.7,77,71,61,29.68,29.62,8,1,8,0.00
2013-3-3,41.2,33.3,30.0,30.2,26.8,23.5,90,77,61,29.65,29.56,8,2,9,0.00
2013-3-4,38.7,32.3,26.2,25.9,23.0,19.2,79,69,56,29.76,29.60,19,4,19,0.00
2013-3-5,46.0,35.7,28.9,30.6,26.2,21.7,87,69,51,30.06,29.76,7,1,7,0.00
2013-3-6,37.8,34.5,32.4,34.0,31.5,29.3,95,89,73,30.08,30.02,19,2,19,0.08
2013-3-7,33.3,31.0,29.1,30.4,28.8,27.1,94,91,84,30.04,29.99,12,1,12,0.14
2013-3-8,35.8,31.4,28.8,31.8,28.6,24.6,95,89,71,30.15,29.93,9,1,9,0.96
2013-3-9,48.7,35.9,25.3,30.0,24.6,20.1,94,66,33,30.35,30.14,8,0,9,0.00
2013-3-10,45.0,33.8,20.8,32.2,27.4,18.9,94,79,55,30.40,30.29,5,1,8,0.00
2013-3-11,51.4,41.1,33.8,39.0,34.5,30.2,93,78,53,30.32,30.14,11,1,12,0.00
2013-3-12,54.7,47.9,40.1,51.1,45.9,38.3,96,93,81,30.14,29.71,13,1,13,0.40
2013-3-13,49.1,40.7,29.7,45.0,29.9,20.8,94,68,39,29.78,29.71,15,2,16,0.00
2013-3-14,34.0,28.9,21.4,24.8,15.0,7.0,77,56,42,29.85,29.72,19,4,21,0.00
2013-3-15,39.9,29.0,18.0,28.4,15.1,5.2,85,58,29,29.88,29.65,17,3,17,0.00
2013-3-16,38.1,32.2,25.9,27.9,16.8,9.9,85,55,33,29.87,29.69,8,1,9,0.00
2013-3-17,37.6,29.3,21.7,19.0,11.6,3.4,79,50,27,30.31,29.87,14,2,16,0.00
2013-3-18,38.1,27.0,14.7,24.8,8.7,0.7,87,49,22,30.45,30.21,7,1,8,0.00
2013-3-19,34.0,30.8,27.3,32.7,29.2,24.6,95,94,84,30.21,29.62,14,1,14,0.67
2013-3-20,36.3,30.0,24.6,27.0,20.6,17.2,94,69,48,29.81,29.69,21,4,21,0.00
2013-3-21,35.1,27.9,20.7,27.3,21.2,15.8,92,77,50,29.82,29.61,7,0,7,0.00
2013-3-22,38.5,31.1,24.1,23.9,19.0,15.1,71,61,43,29.75,29.62,17,4,18,0.00
2013-3-23,40.3,33.6,27.3,23.7,20.6,18.5,77,60,43,29.81,29.67,22,5,22,0.00
2013-3-24,46.8,36.7,30.0,26.1,23.0,19.6,78,59,40,29.83,29.72,13,2,13,0.00
2013-3-25,41.4,35.0,28.8,32.5,28.1,23.4,83,76,67,29.76,29.50,8,0,8,0.00
2013-3-26,47.1,38.8,33.8,29.3,25.5,19.4,78,60,38,29.79,29.53,11,2,12,0.00
2013-3-27,53.6,40.2,27.0,30.6,24.2,19.2,78,55,31,29.87,29.75,14,2,15,0.00
2013-3-28,50.2,41.7,34.0,34.7,31.8,28.2,93,69,45,30.02,29.87,7,1,7,0.00
2013-3-29,57.0,44.3,32.4,34.5,30.7,25.7,89,61,32,30.05,29.96,13,2,13,0.00
2013-3-30,56.7,45.2,34.0,32.4,24.4,14.4,76,48,22,30.09,30.00,13,2,14,0.00
2013-3-31,59.2,43.7,27.7,40.6,27.6,21.2,91,58,24,30.11,29.71,14,1,14,0.04
2013-4-1,61.9,45.0,32.5,44.8,35.4,12.9,95,72,39,29.79,29.50,19,3,20,0.04
2013-4-2,39.9,32.5,27.7,19.8,14.5,10.6,63,48,31,29.96,29.80,21,6,26,0.04
2013-4-3,44.1,35.0,28.8,18.7,14.3,9.9,60,44,27,30.17,29.94,21,6,24,0.00
2013-4-4,54.9,40.4,27.9,27.3,17.4,10.6,66,42,20,30.30,30.05,14,3,14,0.00
2013-4-5,60.4,44.8,35.6,30.6,26.2,17.8,77,52,20,30.05,29.64,12,3,17,0.00
2013-4-6,46.8,36.8,28.8,26.1,12.2,2.7,65,39,17,30.33,29.88,14,3,15,0.00
2013-4-7,55.6,41.2,25.3,39.9,27.0,15.8,83,59,28,30.33,30.00,18,2,18,0.00
2013-4-8,66.0,52.5,41.7,42.4,39.6,34.9,94,65,33,30.06,29.95,9,1,11,0.00
2013-4-9,70.3,56.6,45.3,53.6,43.5,39.0,95,65,37,30.06,29.85,21,2,21,0.04
2013-4-10,67.1,53.6,44.4,50.4,46.1,42.4,95,78,51,29.99,29.83,9,1,10,0.10
2013-4-11,55.9,47.3,37.9,45.7,38.7,26.6,96,75,41,30.13,29.81,9,0,9,0.00
2013-4-12,38.5,36.8,35.8,36.0,34.6,31.3,96,92,76,30.14,29.78,15,2,15,0.38
2013-4-13,52.2,42.8,34.2,39.4,35.2,32.7,96,77,50,29.93,29.74,10,1,11,0.02
2013-4-14,52.0,43.1,35.1,39.0,31.7,25.7,94,66,38,30.22,29.91,15,2,17,0.00
2013-4-15,60.1,44.5,29.5,35.6,31.2,26.2,89,63,36,30.38,30.22,8,1,8,0.00
2013-4-16,67.3,51.0,34.7,50.0,41.5,32.5,93,72,43,30.39,30.06,15,2,15,0.00
2013-4-17,68.2,57.1,46.2,52.0,37.1,26.8,92,52,24,30.32,30.06,10,2,10,0.00
2013-4-18,62.8,50.2,36.0,44.4,33.3,27.1,82,55,33,30.40,30.13,14,1,14,0.00
2013-4-19,73.6,61.5,51.1,61.5,56.6,44.4,96,84,62,30.12,29.64,16,2,16,0.00
2013-4-20,63.7,52.0,41.0,61.3,39.5,23.2,94,66,36,30.22,29.59,21,4,21,0.41
2013-4-21,54.9,42.4,32.5,30.4,22.5,17.4,82,47,25,30.66,30.22,14,2,14,0.00
2013-4-22,51.4,40.7,30.0,34.7,29.9,24.8,90,68,38,30.73,30.57,15,2,15,0.00
2013-4-23,40.6,38.8,36.3,39.4,36.0,30.4,96,90,74,30.58,30.10,8,0,8,0.00
2013-4-24,75.6,54.9,39.4,49.8,42.8,36.1,96,70,25,30.10,29.79,11,2,12,0.00
2013-4-25,64.2,53.3,41.2,50.9,35.4,21.7,93,55,23,30.27,29.82,14,3,16,0.01
2013-4-26,64.0,48.1,33.6,40.5,34.2,27.7,84,60,35,30.41,30.26,12,1,12,0.00
2013-4-27,66.4,49.5,32.9,40.6,35.1,31.1,94,63,30,30.41,30.27,8,1,8,0.00
2013-4-28,72.9,53.8,35.1,40.6,34.3,25.9,93,53,25,30.33,30.19,12,1,12,0.00
2013-4-29,70.2,56.3,44.2,46.8,36.6,24.8,88,52,28,30.26,30.17,12,1,12,0.00
2013-4-30,72.5,56.8,42.4,35.8,28.9,16.0,72,38,16,30.35,30.23,10,1,11,0.00
2013-5-1,70.7,54.4,34.3,40.6,34.6,27.0,85,52,27,30.45,30.35,10,1,11,0.00
2013-5-2,80.4,57.1,42.1,44.8,40.3,35.1,91,59,23,30.47,30.30,13,1,13,0.00
2013-5-3,62.1,50.3,39.0,45.7,40.4,35.4,89,70,50,30.50,30.37,11,1,12,0.00
2013-5-4,65.5,49.4,36.5,46.4,37.8,27.0,94,68,34,30.37,30.28,12,1,12,0.00
2013-5-5,63.9,48.0,33.6,43.9,38.1,31.3,94,71,44,30.32,30.22,9,1,9,0.00
2013-5-6,75.6,55.6,35.6,49.8,42.9,33.8,94,67,32,30.27,30.11,8,1,8,0.00
2013-5-7,79.9,62.1,43.0,57.9,50.5,41.2,94,69,40,30.17,30.07,9,1,9,0.00
2013-5-8,70.9,60.6,51.3,63.0,56.8,49.3,96,88,66,30.17,30.02,16,1,16,0.20
2013-5-9,67.3,59.2,54.9,60.4,57.4,54.0,97,94,72,30.03,29.86,5,0,5,0.17
2013-5-10,81.3,65.9,52.0,59.7,54.0,48.4,98,70,36,29.95,29.87,6,0,7,0.00
2013-5-11,69.3,62.1,57.0,61.5,57.9,53.4,95,86,72,29.90,29.68,12,1,12,0.05
2013-5-12,71.8,59.4,47.3,58.8,50.0,31.6,96,74,43,29.81,29.56,15,1,15,0.08
2013-5-13,59.0,48.5,38.7,36.1,30.5,26.1,80,51,31,30.02,29.81,14,2,15,0.00
2013-5-14,56.7,47.3,36.3,36.1,31.6,27.1,83,57,35,30.05,29.98,9,1,9,0.00
2013-5-15,65.5,49.7,32.5,51.4,40.5,30.4,93,74,36,30.06,29.68,10,1,11,0.01
2013-5-16,81.7,67.1,51.3,50.9,42.0,34.3,93,46,20,29.78,29.63,17,3,17,0.00
2013-5-17,71.2,58.4,46.2,45.9,41.1,36.1,83,55,31,30.20,29.78,9,1,10,0.00
2013-5-18,73.0,58.1,42.6,47.5,42.9,36.5,93,62,29,30.30,30.21,7,1,8,0.00
2013-5-19,72.3,57.8,46.4,54.3,49.7,43.7,95,77,45,30.33,30.19,8,1,8,0.03
2013-5-20,82.6,67.4,54.7,65.1,60.1,53.1,97,80,53,30.19,29.91,9,1,9,0.00
2013-5-21,90.5,65.7,50.2,69.4,59.4,48.7,96,83,46,30.00,29.81,7,0,7,0.30
2013-5-22,77.2,59.5,49.3,67.8,56.2,47.8,97,89,71,30.04,29.85,6,0,6,0.08
2013-5-23,71.4,64.2,55.0,67.6,61.9,53.2,97,92,83,29.91,29.78,8,0,8,0.09
2013-5-24,70.5,61.2,47.7,65.3,58.7,46.2,97,92,77,29.82,29.64,7,0,8,0.29
2013-5-25,50.2,45.5,39.4,48.7,44.3,37.6,96,95,92,29.82,29.72,9,1,9,0.17
2013-5-26,57.7,47.2,37.9,42.3,39.0,35.8,94,75,50,30.11,29.74,13,2,13,0.00
2013-5-27,73.2,56.2,38.5,45.7,39.5,32.5,94,60,25,30.16,30.07,11,1,12,0.00
2013-5-28,77.5,59.0,40.8,52.7,44.8,38.7,93,64,29,30.22,30.14,5,0,5,0.00
2013-5-29,74.8,62.8,56.5,67.3,60.1,52.7,97,91,73,30.17,29.96,9,0,10,0.85
2013-5-30,87.6,73.4,61.0,71.1,65.6,59.9,97,79,53,30.08,30.00,9,1,9,0.00
2013-5-31,95.4,78.9,64.2,71.6,65.2,59.9,96,67,36,30.08,29.92,8,1,8,0.00
2013-6-1,93.9,78.0,63.9,69.3,65.4,60.8,90,68,40,29.97,29.84,7,1,8,0.00
2013-6-2,90.5,76.1,66.4,70.2,65.9,62.8,90,73,43,29.87,29.71,10,1,11,0.00
2013-6-3,78.3,67.9,59.7,68.0,62.2,44.1,96,83,56,29.83,29.74,5,0,5,0.35
2013-6-4,73.0,60.7,49.3,51.3,44.6,38.8,88,57,37,30.09,29.81,9,1,9,0.00
2013-6-5,76.8,61.0,45.3,53.1,47.3,42.6,93,64,33,30.18,30.08,6,0,6,0.00
2013-6-6,73.8,61.1,50.7,54.3,49.8,43.9,93,68,42,30.18,30.08,7,0,7,0.00
2013-6-7,57.7,54.6,52.2,56.7,53.4,51.3,97,96,92,30.09,29.80,5,0,5,1.49
2013-6-8,77.0,61.5,51.4,64.4,56.4,50.5,98,85,62,30.00,29.62,12,1,12,0.92
2013-6-9,80.8,66.0,53.6,58.8,55.3,52.2,95,72,41,30.16,30.00,7,1,8,0.00
2013-6-10,68.2,59.9,52.9,61.7,56.9,50.9,96,90,69,30.18,29.98,8,0,8,0.67
2013-6-11,62.1,57.7,55.2,59.4,56.3,54.3,97,95,89,29.98,29.55,5,0,5,0.89
2013-6-12,68.7,61.3,53.4,57.0,54.2,50.9,97,79,58,29.81,29.55,11,2,11,0.00
2013-6-13,60.3,53.7,49.1,57.4,52.1,47.7,97,94,86,29.81,29.64,5,0,7,0.85
2013-6-14,71.2,58.3,50.2,58.8,53.2,49.3,97,85,54,29.77,29.62,5,0,5,0.87
2013-6-15,80.4,65.0,53.8,54.9,49.4,43.3,92,62,30,29.94,29.77,8,0,8,0.00
2013-6-16,74.8,64.1,49.8,62.4,54.7,46.2,89,73,51,29.94,29.70,8,0,8,0.00
2013-6-17,87.3,69.4,58.8,64.0,59.5,56.1,96,75,37,29.88,29.76,10,1,11,0.12
2013-6-18,78.1,62.3,57.7,67.3,59.8,56.7,97,92,65,29.92,29.85,4,0,4,1.02
2013-6-19,77.4,62.2,52.2,59.0,53.7,46.0,97,77,40,30.14,29.89,5,0,6,0.13
2013-6-20,81.3,64.5,47.8,56.7,51.3,45.1,95,67,32,30.25,30.14,5,0,5,0.00
2013-6-21,86.4,70.4,57.2,65.7,59.2,52.7,87,70,43,30.24,30.17,7,1,7,0.00
2013-6-22,85.6,71.6,59.2,65.1,59.4,55.2,87,67,40,30.21,30.10,9,0,9,0.00
2013-6-23,90.9,75.7,62.8,73.8,64.8,55.4,82,70,53,30.15,29.99,9,1,12,0.00
2013-6-24,94.3,78.4,67.6,73.2,69.1,65.5,95,76,47,30.02,29.86,9,1,10,0.07
2013-6-25,93.6,76.9,65.7,71.4,67.7,63.9,95,76,47,29.92,29.72,9,1,9,0.03
2013-6-26,87.3,75.0,66.7,71.2,68.1,64.9,95,80,54,29.83,29.71,9,0,9,0.00
2013-6-27,70.0,66.2,63.1,67.6,64.3,62.1,97,94,86,29.83,29.73,3,0,3,0.06
2013-6-28,81.7,69.9,62.1,73.6,66.7,61.2,98,90,71,29.73,29.47,9,0,9,0.43
2013-6-29,84.0,73.8,69.3,71.1,68.0,66.4,96,83,59,29.70,29.49,9,0,9,0.00
2013-6-30,86.2,75.1,68.5,72.7,68.9,66.4,94,82,59,29.91,29.70,9,0,10,0.00
2013-7-1,82.0,73.9,70.2,75.2,70.9,68.5,96,90,76,30.06,29.91,7,0,7,0.02
2013-7-2,81.9,75.2,68.4,73.9,70.6,64.4,94,86,73,30.16,30.05,5,0,6,0.00
2013-7-3,88.5,75.0,64.0,74.8,69.0,61.7,95,82,59,30.19,30.12,7,1,8,0.00
2013-7-4,93.6,81.0,71.2,75.2,72.5,69.6,95,77,54,30.19,30.08,7,1,7,0.00
2013-7-5,94.8,82.8,73.4,76.5,72.7,70.0,90,73,49,30.14,30.01,8,1,8,0.00
2013-7-6,91.9,81.0,72.7,74.7,71.4,68.2,90,74,52,30.06,29.96,6,1,8,0.00
2013-7-7,94.3,77.3,68.5,77.4,70.7,66.4,95,82,53,30.01,29.89,7,0,7,0.08
2013-7-8,91.6,77.7,69.3,74.8,70.1,65.5,97,79,48,30.03,29.89,6,1,7,0.00
2013-7-9,73.8,69.1,65.5,69.6,66.3,63.9,96,91,86,30.08,30.01,3,0,3,0.01
2013-7-10,86.4,73.8,66.6,75.4,70.0,64.6,96,89,67,30.05,29.77,7,0,7,0.14
2013-7-11,81.9,74.1,68.5,75.4,71.1,66.7,97,91,75,29.91,29.76,3,0,3,0.11
2013-7-12,76.8,69.1,64.0,67.1,62.5,58.6,95,80,66,30.18,29.91,5,0,5,0.00
2013-7-13,74.1,68.5,63.5,71.1,65.8,59.4,96,91,83,30.29,30.17,3,0,3,0.02
2013-7-14,90.0,78.7,70.3,74.7,71.7,69.1,98,81,53,30.28,30.18,6,0,6,0.02
2013-7-15,95.4,80.7,70.7,76.6,72.2,68.5,95,78,44,30.19,30.07,3,0,3,0.00
2013-7-16,99.7,81.3,66.4,73.8,68.8,64.2,95,70,36,30.14,30.08,6,0,6,0.00
2013-7-17,100.8,82.5,69.4,74.7,70.4,66.7,95,71,35,30.15,29.98,4,0,5,0.00
2013-7-18,100.0,84.5,74.7,76.5,72.7,68.7,88,70,40,29.99,29.90,4,0,4,0.00
2013-7-19,98.6,84.6,73.6,77.5,73.9,70.7,94,73,44,29.93,29.70,10,1,10,0.00
2013-7-20,93.4,81.5,69.4,78.3,73.5,65.5,92,78,50,29.79,29.63,15,1,15,0.22
2013-7-21,88.0,75.0,66.7,69.3,65.9,62.6,91,75,48,29.96,29.79,3,0,3,0.00
2013-7-22,83.7,72.4,64.6,71.4,66.8,62.8,95,84,58,29.99,29.86,5,0,6,0.00
2013-7-23,84.2,72.1,68.4,78.4,70.1,66.4,97,94,78,29.86,29.51,10,0,10,1.33
2013-7-24,85.5,74.3,66.7,72.1,67.1,57.2,98,80,53,29.93,29.56,7,0,7,0.01
2013-7-25,66.6,59.4,57.7,57.4,54.0,48.6,96,83,69,30.08,29.93,2,0,4,0.20
2013-7-26,69.4,62.5,57.9,68.0,61.0,56.8,97,95,84,30.04,29.94,3,0,6,0.41
2013-7-27,85.3,69.8,57.7,70.0,63.0,56.7,97,81,50,30.05,29.97,3,0,4,0.00
2013-7-28,86.0,71.9,61.9,70.5,66.1,60.1,95,83,55,30.00,29.93,3,0,4,0.00
2013-7-29,82.9,72.1,64.2,72.9,67.5,62.8,96,86,64,30.02,29.94,2,0,7,0.02
2013-7-30,83.7,69.7,58.8,62.6,59.0,56.1,93,71,43,30.08,30.02,4,0,8,0.00
2013-7-31,83.8,69.9,58.5,64.0,60.0,55.6,92,73,41,30.12,30.01,2,0,4,0.00
2013-8-1,78.4,67.0,59.4,67.8,62.3,57.9,96,86,62,30.03,29.85,4,0,7,0.04
2013-8-2,84.0,70.9,63.0,68.2,63.2,59.5,97,79,48,29.87,29.78,6,1,9,0.52
2013-8-3,78.8,68.6,61.9,64.6,61.8,59.5,95,80,55,29.85,29.77,5,1,6,0.00
2013-8-4,81.3,66.4,54.9,59.7,56.4,52.9,94,72,42,29.88,29.76,4,1,8,0.00
2013-8-5,78.1,63.6,52.5,54.1,49.7,43.3,90,64,31,30.03,29.88,6,1,9,0.00
2013-8-6,80.6,63.9,48.7,57.9,52.1,46.6,94,69,39,30.13,30.04,2,0,3,0.00
2013-8-7,80.2,66.6,53.8,60.4,55.8,52.2,95,72,42,30.17,30.09,3,0,8,0.00
2013-8-8,79.0,70.0,63.9,71.1,65.9,57.7,95,87,75,30.11,29.99,2,0,6,0.07
2013-8-9,74.3,71.6,69.6,73.4,69.9,67.8,97,94,89,30.01,29.73,5,0,9,1.42
2013-8-10,83.5,71.2,59.5,69.3,61.5,52.9,98,74,42,30.00,29.78,7,1,11,0.01
2013-8-11,81.7,65.7,52.0,60.3,54.9,50.0,94,71,41,30.07,29.99,5,0,6,0.00
2013-8-12,84.7,69.4,57.2,63.3,58.7,55.0,95,72,40,30.02,29.91,3,0,6,0.00
2013-8-13,74.5,66.4,61.5,67.5,63.2,59.5,95,90,74,29.91,29.67,2,0,4,0.01
2013-8-14,73.2,64.9,58.6,62.8,54.0,48.2,95,69,48,29.96,29.65,7,2,11,0.00
2013-8-15,77.2,62.1,50.7,54.9,52.0,48.7,94,73,41,30.11,29.96,5,0,7,0.00
2013-8-16,80.2,64.7,51.4,59.0,54.2,49.5,94,72,40,30.18,30.10,4,0,7,0.00
2013-8-17,82.9,67.0,53.2,64.8,58.1,51.6,94,76,44,30.26,30.18,3,0,3,0.00
2013-8-18,80.1,66.6,57.4,64.8,60.0,55.6,94,81,51,30.26,30.07,2,0,4,0.00
2013-8-19,82.0,69.1,58.6,63.3,59.9,56.1,93,75,47,30.07,29.94,3,0,5,0.00
2013-8-20,87.8,72.1,59.5,66.0,61.5,57.6,94,73,42,30.08,29.97,3,0,5,0.00
2013-8-21,90.1,73.0,60.4,67.6,62.9,58.5,94,74,42,30.13,30.01,4,0,6,0.00
2013-8-22,84.7,72.6,61.3,72.1,66.8,59.5,95,83,63,30.02,29.81,3,0,7,0.00
2013-8-23,83.3,71.0,58.8,67.8,59.9,52.2,92,70,42,30.11,29.81,3,0,5,0.00
2013-8-24,82.0,64.5,50.7,54.1,50.5,45.5,91,65,30,30.32,30.11,3,0,5,0.00
2013-8-25,83.8,66.9,51.1,59.5,53.3,49.3,94,66,31,30.35,30.17,3,0,6,0.00
2013-8-26,78.6,69.8,63.7,66.7,61.5,56.5,90,75,61,30.18,29.86,6,1,8,0.00
2013-8-27,82.6,71.9,66.0,72.7,67.6,63.9,97,87,60,29.88,29.81,3,0,4,0.16
2013-8-28,86.2,72.2,61.5,70.7,65.1,60.4,96,80,52,29.94,29.82,3,0,5,0.00
2013-8-29,66.9,63.9,59.9,64.0,61.4,56.8,95,91,88,30.05,29.91,2,0,5,0.01
2013-8-30,81.1,68.8,59.7,67.6,63.2,57.2,93,83,62,30.01,29.82,4,0,5,0.00
2013-8-31,77.5,72.6,67.6,72.3,69.7,65.5,97,91,83,29.82,29.77,4,0,4,0.05
2013-9-1,75.4,71.0,67.1,74.5,69.8,65.8,98,96,92,29.86,29.77,6,0,9,0.46
2013-9-2,75.9,72.5,70.3,74.1,70.8,69.1,97,94,87,29.84,29.68,5,0,5,0.08
2013-9-3,79.2,69.7,61.9,70.9,66.7,56.8,98,90,72,29.80,29.67,3,0,5,0.03
2013-9-4,79.0,66.8,56.3,61.0,57.2,54.3,95,74,47,29.91,29.79,5,1,8,0.00
2013-9-5,73.8,61.8,48.6,62.2,54.1,43.9,94,78,41,30.13,29.85,2,0,4,0.02
2013-9-6,73.0,55.5,41.7,50.0,44.0,39.6,95,70,32,30.24,30.09,3,0,6,0.00
2013-9-7,81.3,62.7,46.4,57.2,50.1,43.5,90,67,32,30.09,29.85,5,0,7,0.00
2013-9-8,78.4,64.0,48.0,62.2,52.5,42.4,90,69,40,30.08,29.74,6,1,8,0.00
2013-9-9,72.5,55.7,40.5,50.4,44.6,38.3,94,70,36,30.22,30.08,3,0,5,0.00
2013-9-10,73.0,65.3,55.6,69.1,61.9,50.0,95,89,80,30.15,30.02,4,0,8,0.04
2013-9-11,94.3,79.1,68.9,76.1,71.2,66.2,97,79,51,30.06,29.92,4,1,8,0.00
2013-9-12,86.2,75.1,66.0,73.9,69.2,64.8,96,83,62,29.94,29.65,6,1,10,1.10
2013-9-13,82.0,68.1,59.2,69.8,63.3,53.6,98,86,57,29.75,29.55,5,0,7,0.05
2013-9-14,68.7,58.9,51.1,54.1,51.7,48.6,92,78,58,30.05,29.75,7,1,7,0.00
2013-9-15,71.2,57.3,45.3,53.6,48.9,43.9,96,76,44,30.16,30.04,5,0,5,0.00
2013-9-16,66.9,56.4,46.8,56.8,50.6,37.2,94,81,61,30.24,30.01,5,0,5,0.02
2013-9-17,63.9,49.7,38.8,46.4,39.9,35.1,93,71,42,30.42,30.24,3,0,6,0.00
2013-9-18,73.4,55.1,40.8,51.4,44.6,39.0,94,72,35,30.32,30.13,5,0,5,0.00
2013-9-19,81.7,61.1,46.8,57.0,50.8,44.2,92,72,36,30.14,30.03,4,0,4,0.00
2013-9-20,82.0,62.5,48.0,58.6,52.8,46.4,95,75,39,30.07,29.98,2,0,4,0.00
2013-9-21,72.7,63.9,54.1,64.6,59.1,52.2,96,85,66,30.01,29.70,11,1,11,0.00
2013-9-22,72.0,62.5,50.5,65.8,55.5,44.2,96,79,52,29.82,29.57,9,1,9,0.48
2013-9-23,63.9,52.0,42.8,45.3,42.2,38.8,91,71,47,30.01,29.82,7,1,7,0.00
2013-9-24,66.2,51.5,38.7,46.6,42.0,36.5,93,73,43,30.00,29.81,9,1,9,0.00
2013-9-25,70.3,55.2,42.1,54.7,47.4,40.5,95,77,51,29.97,29.86,4,0,4,0.00
2013-9-26,64.8,56.0,49.5,51.3,49.0,46.6,93,79,55,30.11,29.97,4,0,4,0.00
2013-9-27,65.7,56.2,47.8,54.5,51.3,46.2,94,84,66,30.25,30.11,3,0,3,0.00
2013-9-28,74.3,56.0,43.9,57.4,49.9,42.3,95,82,53,30.32,30.24,5,0,5,0.00
2013-9-29,70.2,52.6,41.9,55.9,45.3,40.1,97,79,40,30.25,30.11,4,0,5,0.00
2013-9-30,69.3,53.1,42.4,54.5,47.2,40.6,96,82,48,30.11,29.95,3,0,4,0.00
2013-10-1,78.1,59.6,44.1,58.6,51.1,42.8,96,77,39,29.96,29.84,5,0,7,0.00
2013-10-2,77.4,63.7,53.4,61.3,56.3,51.4,95,79,56,29.95,29.83,10,1,10,0.00
2013-10-3,77.0,60.2,49.3,56.1,50.4,45.1,95,74,37,30.08,29.95,4,0,5,0.00
2013-10-4,61.2,55.3,49.8,59.2,52.9,47.8,96,92,84,30.09,30.02,4,0,4,0.28
2013-10-5,69.3,60.8,55.8,61.9,57.7,54.7,97,90,75,30.11,30.04,3,0,3,0.03
2013-10-6,58.8,55.5,53.2,57.0,54.3,52.2,97,96,93,30.20,30.09,4,0,4,0.32
2013-10-7,75.0,62.7,54.7,70.0,60.3,53.1,98,92,76,30.11,29.79,13,1,14,0.11
2013-10-8,66.2,54.3,41.9,53.4,45.3,39.7,94,74,44,30.36,29.89,6,0,6,0.00
2013-10-9,61.5,48.5,39.4,48.2,42.5,37.6,94,81,56,30.46,30.35,7,0,7,0.00
2013-10-10,61.0,50.1,39.6,53.6,46.8,37.9,95,89,75,30.35,30.17,5,0,5,0.00
2013-10-11,68.5,55.6,47.1,57.2,49.4,45.3,96,81,57,30.17,30.07,2,0,5,0.00
2013-10-12,58.6,52.4,46.2,55.4,50.0,44.6,95,92,82,30.37,30.13,5,0,5,0.00
2013-10-13,58.5,50.4,38.8,49.8,46.4,37.2,96,87,70,30.42,30.35,7,0,7,0.00
2013-10-14,63.3,48.4,33.6,48.7,41.6,32.5,96,80,47,30.39,30.24,3,0,4,0.00
2013-10-15,65.8,55.1,45.7,53.2,48.8,44.1,95,81,58,30.25,30.16,4,0,5,0.00
2013-10-16,59.0,52.6,45.3,53.2,49.6,43.7,97,90,76,30.16,29.91,3,0,4,0.00
2013-10-17,72.0,59.7,48.7,60.6,55.2,47.3,97,86,62,29.91,29.70,6,0,6,0.01
2013-10-18,65.5,58.3,43.9,59.7,49.9,40.6,96,75,51,29.90,29.60,13,2,14,0.01
2013-10-19,65.5,51.9,37.6,47.1,41.7,35.8,94,71,42,29.96,29.73,6,0,7,0.00
2013-10-20,58.3,48.0,37.6,49.8,42.1,33.6,96,81,49,30.02,29.68,11,1,12,0.03
2013-10-21,65.5,50.6,35.8,43.5,38.8,33.1,92,67,39,30.11,29.98,10,1,10,0.00
2013-10-22,64.2,51.9,41.2,52.3,45.3,37.0,95,79,56,29.98,29.70,8,0,9,0.00
2013-10-23,48.6,39.9,34.2,38.7,34.8,31.8,92,83,58,29.79,29.69,3,0,3,0.00
2013-10-25,36.9,32.8,30.7,27.3,26.5,25.7,84,78,68,30.16,30.13,0,0,1,0.00
2013-10-26,52.9,41.2,27.7,36.0,29.7,25.3,93,67,36,30.16,29.87,10,1,10,0.00
2013-10-27,54.1,45.0,34.5,37.9,33.6,28.9,84,66,43,30.06,29.80,13,2,14,0.01
2013-10-28,56.8,42.7,28.9,35.6,31.1,25.7,92,66,42,30.34,30.06,14,1,15,0.00
2013-10-29,50.9,36.5,27.9,29.3,23.2,19.9,83,61,34,30.44,30.34,6,0,6,0.00
2013-10-30,53.1,39.6,28.8,40.8,33.3,21.6,90,78,61,30.36,30.19,9,0,9,0.00
2013-10-31,60.1,47.1,32.0,57.4,44.9,30.2,96,92,86,30.23,29.78,10,0,15,0.04
2013-11-1,67.3,62.1,56.1,61.7,57.0,52.3,95,84,70,29.78,29.44,13,2,14,0.10
2013-11-2,68.4,53.8,43.2,52.3,44.0,39.7,95,73,38,29.72,29.57,8,0,8,0.01
2013-11-3,47.3,40.9,30.9,45.1,29.2,16.3,92,65,33,30.41,29.71,6,0,6,0.00
2013-11-4,44.2,32.5,24.1,20.3,18.1,15.8,80,57,34,30.70,30.41,6,0,7,0.00
2013-11-5,50.4,36.8,23.4,33.1,27.0,18.9,90,69,44,30.71,30.51,6,0,6,0.00
2013-11-6,59.5,48.7,38.1,48.2,41.0,33.1,89,76,55,30.51,30.03,10,1,10,0.00
2013-11-7,63.1,52.4,38.7,56.5,47.9,32.4,92,85,75,30.04,29.65,9,2,15,0.11
2013-11-8,45.1,37.2,28.4,34.2,27.0,21.9,87,67,48,30.09,29.81,17,2,21,0.00
2013-11-9,43.0,35.2,25.3,28.9,24.7,21.4,85,67,45,30.21,30.02,7,1,12,0.00
2013-11-10,54.1,43.9,38.3,41.0,35.2,28.9,94,72,52,30.02,29.75,12,2,18,0.02
2013-11-11,49.3,43.6,37.2,31.8,28.2,25.0,66,55,40,30.10,29.87,11,2,17,0.00
2013-11-12,48.4,34.2,25.0,37.9,25.2,15.3,89,70,52,30.18,29.88,11,2,15,0.01
2013-11-13,34.0,27.6,21.4,17.1,14.7,10.9,77,59,40,30.29,30.17,7,1,11,0.00
2013-11-14,49.6,38.5,27.7,24.8,20.6,16.5,67,50,36,30.17,30.05,10,2,13,0.00
2013-11-15,58.6,44.8,29.7,32.4,22.7,15.6,64,44,19,30.19,30.10,5,1,8,0.00
2013-11-16,58.6,45.1,34.0,30.7,28.4,24.6,85,54,27,30.30,30.17,3,0,6,0.00
2013-11-17,55.0,42.2,32.5,48.2,38.6,29.7,95,87,71,30.30,29.83,3,0,4,0.00
2013-11-18,62.4,56.1,45.0,60.1,45.3,31.6,97,70,45,29.83,29.53,10,2,15,0.41
2013-11-19,46.9,38.4,29.8,32.4,22.7,16.9,61,53,43,30.27,29.65,9,4,18,0.00
2013-11-20,39.7,30.3,21.6,17.6,14.7,11.5,75,54,31,30.62,30.28,6,1,8,0.00
2013-11-21,45.7,32.4,18.7,33.3,21.0,13.6,87,65,39,30.63,30.37,5,0,9,0.00
2013-11-22,46.8,43.8,40.6,45.3,41.1,33.3,96,90,75,30.37,29.81,2,0,4,0.04
2013-11-23,46.9,38.6,27.3,45.3,26.4,16.3,96,63,39,29.91,29.78,14,5,21,0.00
2013-11-24,27.3,22.0,18.5,19.8,5.8,-3.5,84,51,28,30.21,29.80,16,6,22,0.00
2013-11-25,30.7,23.6,15.3,18.1,5.4,-3.5,61,46,26,30.38,30.21,10,3,14,0.00
2013-11-26,39.4,33.8,30.0,31.1,21.6,14.2,92,62,48,30.32,30.02,5,1,10,0.06
2013-11-27,61.0,47.6,33.3,59.5,45.8,30.9,97,93,85,30.01,29.21,11,3,19,1.55
2013-11-28,35.6,28.4,22.1,30.9,16.0,7.2,84,60,39,30.43,29.48,17,5,24,0.00
2013-11-29,32.4,25.7,18.7,16.5,12.4,7.2,80,57,44,30.74,30.43,7,2,10,0.00
2013-11-30,30.9,22.9,11.8,21.9,13.1,7.2,84,67,50,30.79,30.41,3,0,7,0.00
2013-12-1,34.5,31.6,28.6,33.4,29.1,22.3,96,91,77,30.41,30.01,2,0,3,0.02
2013-12-2,38.3,35.8,34.3,37.6,35.0,33.3,97,97,96,30.01,29.91,2,0,3,0.00
2013-12-3,48.6,37.1,29.8,38.3,33.2,27.9,97,87,59,29.95,29.84,6,1,11,0.00
2013-12-4,44.2,33.0,26.2,30.7,27.7,25.0,95,82,56,30.19,29.95,5,0,8,0.00
2013-12-5,54.1,37.9,28.8,53.6,36.1,26.4,98,93,87,30.19,29.90,4,0,9,0.01
2013-12-6,54.1,46.6,32.4,53.2,44.5,31.1,97,92,76,30.12,29.85,5,1,8,0.31
2013-12-7,36.0,31.7,25.3,32.2,27.8,19.6,96,86,69,30.45,30.06,7,1,13,0.06
2013-12-8,29.7,26.7,19.6,20.1,17.6,15.1,87,69,56,30.59,30.44,4,0,5,0.00
2013-12-9,33.8,29.7,24.6,32.7,27.6,18.1,96,92,70,30.48,29.90,6,0,8,0.17
2013-12-10,33.1,29.7,22.5,30.9,27.5,17.6,96,92,78,30.00,29.78,8,1,10,0.07
2013-12-11,28.0,23.3,19.6,20.8,18.0,15.4,89,80,70,30.21,30.00,9,2,11,0.00
2013-12-12,22.1,18.4,11.1,17.6,9.2,3.2,86,68,47,30.28,30.07,9,2,12,0.00
2013-12-13,27.0,20.2,11.5,19.0,12.0,6.1,83,70,58,30.38,30.00,14,2,17,0.00
2013-12-14,16.2,12.9,9.7,14.0,5.6,-1.5,91,73,52,30.59,30.13,3,0,4,0.22
2013-12-15,27.1,22.6,16.2,24.1,20.0,14.0,93,90,81,30.12,29.45,6,1,8,0.84
2013-12-16,26.4,21.1,10.9,18.9,11.9,5.9,91,68,49,30.19,29.74,9,2,17,0.00
2013-12-17,16.7,9.5,0.0,14.5,6.1,-3.3,91,86,74,30.27,29.96,2,0,4,0.32
2013-12-18,30.7,23.6,15.1,22.1,18.6,12.4,93,81,65,30.09,29.88,8,1,13,0.04
2013-12-19,40.5,31.3,20.7,26.2,23.1,17.1,88,72,53,30.11,29.96,8,1,16,0.00
2013-12-20,50.5,39.9,29.5,35.4,30.9,25.3,85,71,54,30.10,29.90,10,0,10,0.00
2013-12-21,53.8,46.7,38.7,46.8,41.4,33.3,92,82,71,29.95,29.85,5,0,8,0.00
2013-12-22,63.0,46.5,34.0,59.2,44.7,32.9,97,94,74,29.99,29.75,5,0,8,0.00
2013-12-23,37.8,33.3,31.5,37.0,32.6,30.7,97,97,96,30.08,29.96,5,0,6,0.43
2013-12-24,36.1,30.9,24.6,35.4,22.7,12.7,97,72,53,30.20,30.04,9,2,11,0.00
2013-12-25,24.6,18.1,13.8,12.4,5.8,2.8,72,59,47,30.53,30.19,10,2,16,0.00
2013-12-26,29.1,22.8,14.4,27.0,18.2,6.8,92,82,71,30.49,30.09,8,1,10,0.04
2013-12-27,31.5,25.6,17.2,21.6,19.3,15.1,92,77,62,30.28,30.20,9,1,14,0.00
2013-12-28,44.2,32.9,23.4,28.8,24.8,19.4,88,73,52,30.22,30.00,8,1,11,0.00
2013-12-29,41.9,35.2,29.7,36.5,31.1,25.3,96,85,70,30.03,29.41,4,0,10,0.98
2013-12-30,39.7,30.8,17.8,34.9,22.7,9.7,95,74,45,30.15,29.53,9,2,18,0.00
2013-12-31,23.7,18.6,12.4,15.4,9.6,3.7,80,68,50,30.19,30.01,10,1,15,0.00
2014-1-1,25.5,20.2,13.5,13.8,8.8,5.0,78,61,47,30.37,30.19,12,2,16,0.00
2014-1-2,19.9,12.1,1.2,15.3,8.5,-2.6,89,85,76,30.35,29.83,5,1,8,0.15